createdAt,value
2023-03-20T00:02:22.858Z,36.47
2023-03-20T00:04:49.643Z,34.03
2023-03-20T00:07:16.670Z,35.58
2023-03-20T00:09:43.379Z,36.75
2023-03-20T00:12:22.214Z,34.50
2023-03-20T00:14:49.003Z,33.20
2023-03-20T00:17:20.695Z,32.03
2023-03-20T00:19:47.674Z,34.90
2023-03-20T00:22:14.351Z,33.45
2023-03-20T00:24:41.136Z,33.90
2023-03-20T00:27:13.466Z,31.30
2023-03-20T00:29:40.160Z,33.47
2023-03-20T00:32:12.991Z,31.88
2023-03-20T00:34:39.712Z,30.77
2023-03-20T00:37:06.558Z,31.80
2023-03-20T00:39:34.382Z,33.05
2023-03-20T00:42:03.952Z,32.80
2023-03-20T00:44:42.367Z,31.63
2023-03-20T00:47:16.726Z,32.92
2023-03-20T00:49:45.779Z,29.88
2023-03-20T00:52:12.677Z,30.30
2023-03-20T00:54:39.338Z,26.45
2023-03-20T00:57:12.618Z,30.55
2023-03-20T00:59:45.710Z,30.77
2023-03-20T01:02:13.191Z,28.30
2023-03-20T01:04:42.252Z,28.48
2023-03-20T01:07:14.176Z,28.13
2023-03-20T01:09:41.705Z,26.42
2023-03-20T01:12:10.585Z,26.70
2023-03-20T01:14:37.316Z,26.80
2023-03-20T01:17:04.383Z,23.20
2023-03-20T01:19:31.062Z,26.65
2023-03-20T01:21:57.788Z,23.92
2023-03-20T01:24:24.668Z,22.33
2023-03-20T01:26:52.642Z,25.23
2023-03-20T01:29:25.813Z,24.45
2023-03-20T01:31:53.304Z,25.80
2023-03-20T01:34:21.013Z,24.50
2023-03-20T01:36:56.874Z,25.27
2023-03-20T01:39:32.497Z,24.63
2023-03-20T01:42:00.354Z,25.10
2023-03-20T01:44:30.320Z,24.15
2023-03-20T01:46:58.262Z,23.45
2023-03-20T01:49:24.899Z,22.92
2023-03-20T01:51:52.530Z,22.73
2023-03-20T01:54:23.974Z,24.20
2023-03-20T01:59:35.516Z,21.92
2023-03-20T02:02:02.474Z,23.17
2023-03-20T02:04:39.165Z,20.25
2023-03-20T02:07:09.710Z,21.08
2023-03-20T02:09:36.763Z,24.10
2023-03-20T02:12:04.735Z,21.63
2023-03-20T02:14:32.964Z,21.30
2023-03-20T02:16:59.944Z,22.75
2023-03-20T02:19:43.900Z,22.85
2023-03-20T02:22:38.277Z,22.55
2023-03-20T02:25:42.629Z,20.63
2023-03-20T02:28:37.545Z,23.08
2023-03-20T02:31:25.966Z,22.75
2023-03-20T02:34:44.104Z,20.25
2023-03-20T02:37:29.544Z,21.73
2023-03-20T02:40:21.144Z,21.23
2023-03-20T02:43:02.982Z,20.08
2023-03-20T02:45:49.720Z,19.42
2023-03-20T02:48:41.370Z,21.05
2023-03-20T02:51:36.100Z,19.67
2023-03-20T02:54:45.986Z,19.95
2023-03-20T02:57:18.296Z,17.77
2023-03-20T03:00:03.239Z,18.30
2023-03-20T03:02:44.965Z,17.40
2023-03-20T03:05:34.998Z,14.60
2023-03-20T03:08:04.819Z,14.15
2023-03-20T03:10:37.086Z,13.50
2023-03-20T03:13:11.492Z,12.30
2023-03-20T03:15:42.647Z,12.38
2023-03-20T03:18:17.598Z,10.68
2023-03-20T03:20:46.712Z,11.82
2023-03-20T03:23:43.270Z,8.98
2023-03-20T03:26:14.529Z,9.90
2023-03-20T03:28:46.407Z,9.20
2023-03-20T03:31:16.036Z,10.20
2023-03-20T03:33:46.945Z,9.70
2023-03-20T03:36:33.572Z,10.10
2023-03-20T03:39:10.577Z,10.35
2023-03-20T03:41:49.491Z,10.02
2023-03-20T03:44:20.652Z,11.30
2023-03-20T03:47:16.702Z,10.85
2023-03-20T03:49:51.040Z,11.50
2023-03-20T03:52:22.630Z,12.75
2023-03-20T03:55:16.391Z,11.30
2023-03-20T03:58:04.701Z,10.43
2023-03-20T04:00:34.199Z,10.43
2023-03-20T04:03:01.467Z,10.90
2023-03-20T04:05:31.539Z,11.77
2023-03-20T04:08:01.382Z,10.63
2023-03-20T04:10:28.097Z,12.15
2023-03-20T04:12:54.782Z,11.43
2023-03-20T04:15:21.868Z,11.48
2023-03-20T04:17:48.620Z,12.85
2023-03-20T04:20:16.158Z,12.20
2023-03-20T04:22:42.998Z,10.77
2023-03-20T04:25:15.551Z,11.63
2023-03-20T04:27:42.241Z,11.57
2023-03-20T04:30:10.268Z,11.90
2023-03-20T04:32:37.000Z,9.88
2023-03-20T04:35:03.929Z,10.10
2023-03-20T04:37:30.929Z,8.77
2023-03-20T04:39:57.686Z,8.30
2023-03-20T04:42:24.407Z,8.70
2023-03-20T04:44:51.256Z,8.73
2023-03-20T04:47:17.976Z,8.15
2023-03-20T04:49:44.746Z,7.63
2023-03-20T04:52:11.630Z,8.52
2023-03-20T04:54:38.330Z,8.38
2023-03-20T04:57:05.148Z,8.40
2023-03-20T04:59:32.018Z,8.40
2023-03-20T05:01:58.745Z,8.82
2023-03-20T05:04:25.492Z,8.45
2023-03-20T05:06:52.254Z,8.77
2023-03-20T05:09:19.428Z,7.70
2023-03-20T05:11:46.125Z,8.10
2023-03-20T05:14:12.842Z,7.68
2023-03-20T05:16:39.961Z,7.68
2023-03-20T05:19:06.872Z,8.18
2023-03-20T05:21:33.585Z,7.68
2023-03-20T05:24:00.294Z,8.52
2023-03-20T05:26:27.043Z,8.68
2023-03-20T05:28:53.723Z,8.57
2023-03-20T05:31:20.614Z,9.50
2023-03-20T05:33:47.446Z,8.30
2023-03-20T05:36:14.218Z,9.15
2023-03-20T05:38:40.889Z,8.77
2023-03-20T05:41:07.651Z,7.82
2023-03-20T05:43:34.382Z,8.45
2023-03-20T05:46:01.330Z,7.63
2023-03-20T05:48:28.033Z,7.40
2023-03-20T05:50:54.751Z,7.07
2023-03-20T05:53:21.702Z,6.50
2023-03-20T05:55:48.378Z,6.00
2023-03-20T05:58:15.697Z,6.60
2023-03-20T06:00:42.390Z,5.75
2023-03-20T06:03:10.064Z,4.40
2023-03-20T06:05:37.225Z,5.05
2023-03-20T06:08:04.946Z,4.72
2023-03-20T06:10:32.095Z,4.32
2023-03-20T06:13:01.087Z,3.75
2023-03-20T06:15:28.641Z,4.03
2023-03-20T06:17:56.572Z,4.00
2023-03-20T06:20:23.710Z,4.53
2023-03-20T06:22:50.509Z,3.85
2023-03-20T06:25:17.506Z,4.00
2023-03-20T06:27:45.900Z,4.68
2023-03-20T06:30:13.276Z,4.70
2023-03-20T06:32:40.487Z,4.82
2023-03-20T06:35:07.724Z,4.90
2023-03-20T06:37:34.955Z,4.75
2023-03-20T06:40:02.289Z,5.43
2023-03-20T06:42:29.189Z,5.53
2023-03-20T06:44:56.728Z,5.72
2023-03-20T06:47:23.521Z,5.57
2023-03-20T06:49:50.769Z,6.18
2023-03-20T06:52:19.432Z,6.88
2023-03-20T06:54:46.155Z,6.35
2023-03-20T06:57:15.085Z,5.15
2023-03-20T06:59:42.023Z,5.43
2023-03-20T07:02:10.858Z,5.75
2023-03-20T07:04:37.763Z,4.70
2023-03-20T07:07:04.874Z,5.63
2023-03-20T07:09:31.627Z,5.40
2023-03-20T07:11:58.458Z,5.60
2023-03-20T07:14:25.647Z,5.10
2023-03-20T07:16:52.746Z,5.22
2023-03-20T07:19:19.923Z,5.28
2023-03-20T07:21:46.761Z,5.55
2023-03-20T07:24:14.139Z,5.55
2023-03-20T07:26:41.279Z,5.60
2023-03-20T07:29:08.214Z,5.85
2023-03-20T07:31:35.069Z,6.70
2023-03-20T07:34:01.906Z,6.72
2023-03-20T07:36:28.674Z,7.30
2023-03-20T07:38:55.571Z,5.88
2023-03-20T07:41:22.473Z,6.63
2023-03-20T07:43:49.183Z,5.57
2023-03-20T07:46:16.237Z,6.03
2023-03-20T07:48:43.106Z,5.72
2023-03-20T07:51:09.769Z,5.75
2023-03-20T07:53:37.049Z,5.03
2023-03-20T07:56:03.881Z,5.07
2023-03-20T07:58:30.561Z,4.43
2023-03-20T08:00:58.893Z,4.10
2023-03-20T08:03:25.949Z,4.05
2023-03-20T08:05:53.725Z,4.40
2023-03-20T08:08:20.561Z,4.35
2023-03-20T08:10:48.195Z,3.92
2023-03-20T08:13:15.649Z,3.63
2023-03-20T08:15:42.340Z,4.30
2023-03-20T08:18:09.052Z,3.85
2023-03-20T08:20:36.066Z,3.75
2023-03-20T08:23:02.934Z,3.65
2023-03-20T08:25:33.715Z,3.17
2023-03-20T08:28:01.719Z,3.58
2023-03-20T08:30:28.417Z,3.40
2023-03-20T08:32:55.443Z,2.80
2023-03-20T08:35:32.605Z,2.55
2023-03-20T08:38:00.880Z,3.35
2023-03-20T08:40:27.856Z,2.70
2023-03-20T08:42:54.557Z,2.15
2023-03-20T08:45:21.723Z,2.08
2023-03-20T08:47:48.880Z,1.80
2023-03-20T08:50:16.955Z,1.70
2023-03-20T08:52:44.352Z,2.08
2023-03-20T08:55:16.381Z,2.30
2023-03-20T08:57:43.935Z,2.00
2023-03-20T09:00:14.313Z,1.98
2023-03-20T09:02:41.860Z,1.55
2023-03-20T09:05:09.480Z,1.63
2023-03-20T09:07:36.974Z,1.40
2023-03-20T09:10:05.154Z,1.58
2023-03-20T09:12:32.787Z,1.58
2023-03-20T09:14:59.756Z,1.92
2023-03-20T09:17:26.644Z,1.90
2023-03-20T09:19:53.479Z,1.33
2023-03-20T09:22:20.486Z,1.50
2023-03-20T09:24:47.247Z,2.40
2023-03-20T09:27:14.186Z,2.03
2023-03-20T09:29:42.430Z,1.92
2023-03-20T09:32:13.890Z,1.70
2023-03-20T09:37:07.776Z,1.63
2023-03-20T09:39:35.201Z,1.75
2023-03-20T09:42:24.831Z,1.50
2023-03-20T09:45:13.438Z,2.28
2023-03-20T09:48:13.524Z,3.00
2023-03-20T09:50:51.733Z,1.95
2023-03-20T09:53:41.435Z,1.90
2023-03-20T09:56:16.123Z,2.28
2023-03-20T09:58:45.897Z,2.00
2023-03-20T10:01:15.408Z,1.85
2023-03-20T10:03:53.206Z,2.05
2023-03-20T10:06:19.896Z,2.10
2023-03-20T10:08:47.089Z,1.98
2023-03-20T10:11:48.338Z,2.30
2023-03-20T10:14:38.263Z,1.83
2023-03-20T10:17:22.013Z,1.63
2023-03-20T10:19:57.492Z,1.88
2023-03-20T10:22:34.657Z,2.08
2023-03-20T10:25:08.834Z,2.13
2023-03-20T10:27:40.076Z,2.08
2023-03-20T10:30:38.005Z,1.55
2023-03-20T10:33:26.726Z,1.63
2023-03-20T10:36:19.908Z,1.42
2023-03-20T10:38:49.382Z,1.50
2023-03-20T10:41:23.230Z,1.35
2023-03-20T10:43:52.146Z,1.92
2023-03-20T10:46:33.262Z,1.65
2023-03-20T10:49:12.208Z,2.17
2023-03-20T10:51:52.555Z,1.48
2023-03-20T10:54:22.362Z,2.05
2023-03-20T10:56:51.488Z,1.58
2023-03-20T10:59:50.613Z,1.67
2023-03-20T11:02:21.185Z,1.65
2023-03-20T11:04:48.030Z,1.40
2023-03-20T11:07:26.668Z,1.75
2023-03-20T11:10:05.515Z,1.48
2023-03-20T11:12:53.349Z,1.85
2023-03-20T11:15:31.009Z,1.63
2023-03-20T11:18:03.579Z,1.92
2023-03-20T11:20:46.285Z,1.67
2023-03-20T11:23:18.065Z,2.08
2023-03-20T11:25:59.668Z,1.90
2023-03-20T11:31:05.253Z,1.92
2023-03-20T11:33:41.265Z,2.80
2023-03-20T11:36:20.415Z,2.00
2023-03-20T11:38:47.254Z,1.65
2023-03-20T11:41:25.937Z,1.38
2023-03-20T11:43:52.895Z,2.08
2023-03-20T11:46:24.966Z,2.72
2023-03-20T11:49:20.871Z,1.88
2023-03-20T11:51:47.730Z,1.98
2023-03-20T11:54:20.875Z,1.63
2023-03-20T11:56:59.454Z,2.97
2023-03-20T11:59:37.262Z,2.05
2023-03-20T12:02:18.484Z,2.00
2023-03-20T12:04:47.572Z,2.83
2023-03-20T12:07:22.952Z,1.88
2023-03-20T12:09:59.708Z,2.88
2023-03-20T12:13:01.298Z,2.00
2023-03-20T12:15:34.268Z,1.95
2023-03-20T12:18:02.776Z,2.28
2023-03-20T12:20:41.934Z,1.95
2023-03-20T12:23:50.415Z,1.75
2023-03-20T12:26:48.380Z,1.70
2023-03-20T12:29:28.858Z,1.73
2023-03-20T12:32:03.004Z,2.27
2023-03-20T12:34:46.935Z,1.95
2023-03-20T12:37:18.622Z,3.45
2023-03-20T12:39:57.166Z,1.80
2023-03-20T12:42:33.391Z,1.60
2023-03-20T12:45:11.990Z,2.05
2023-03-20T12:47:53.876Z,1.60
2023-03-20T12:50:43.073Z,1.85
2023-03-20T12:53:28.575Z,1.70
2023-03-20T12:56:06.889Z,2.03
2023-03-20T12:59:05.965Z,1.55
2023-03-20T13:01:45.976Z,1.27
2023-03-20T13:04:35.480Z,1.80
2023-03-20T13:07:07.704Z,2.10
2023-03-20T13:10:02.021Z,2.28
2023-03-20T13:13:06.578Z,1.45
2023-03-20T13:15:53.363Z,1.45
2023-03-20T13:18:37.206Z,1.55
2023-03-20T13:21:10.703Z,1.52
2023-03-20T13:24:00.775Z,1.77
2023-03-20T13:26:59.178Z,2.50
2023-03-20T13:29:42.960Z,2.50
2023-03-20T13:32:23.889Z,1.60
2023-03-20T13:35:18.153Z,1.95
2023-03-20T13:37:49.686Z,1.42
2023-03-20T13:40:41.216Z,1.55
2023-03-20T13:43:36.268Z,1.90
2023-03-20T13:46:08.890Z,2.20
2023-03-20T13:48:40.712Z,2.22
2023-03-20T13:51:34.210Z,2.08
2023-03-20T13:54:28.062Z,2.13
2023-03-20T13:57:06.816Z,2.20
2023-03-20T14:00:06.812Z,2.58
2023-03-20T14:03:05.841Z,2.33
2023-03-20T14:05:38.161Z,1.17
2023-03-20T14:08:23.378Z,1.80
2023-03-20T14:11:07.727Z,2.20
2023-03-20T14:13:35.600Z,1.90
2023-03-20T14:16:04.832Z,2.08
2023-03-20T14:18:31.600Z,1.80
2023-03-20T14:21:01.463Z,1.95
2023-03-20T14:23:40.139Z,1.75
2023-03-20T14:26:10.631Z,2.20
2023-03-20T14:28:59.471Z,2.40
2023-03-20T14:31:34.147Z,1.83
2023-03-20T14:34:07.665Z,2.47
2023-03-20T14:36:57.905Z,1.63
2023-03-20T14:39:48.602Z,1.88
2023-03-20T14:42:23.714Z,3.10
2023-03-20T14:45:28.653Z,1.55
2023-03-20T14:48:11.925Z,1.83
2023-03-20T14:50:53.605Z,1.48
2023-03-20T14:53:25.608Z,1.80
2023-03-20T14:55:55.410Z,1.73
2023-03-20T14:58:40.986Z,1.63
2023-03-20T15:01:14.493Z,2.00
2023-03-20T15:03:44.129Z,2.13
2023-03-20T15:06:10.909Z,1.95
2023-03-20T15:08:45.973Z,1.90
2023-03-20T15:11:14.667Z,1.60
2023-03-20T15:13:43.384Z,1.48
2023-03-20T15:16:16.669Z,1.50
2023-03-20T15:18:51.404Z,1.60
2023-03-20T15:21:21.319Z,1.40
2023-03-20T15:23:48.670Z,2.42
2023-03-20T15:26:17.053Z,1.52
2023-03-20T15:28:45.870Z,1.33
2023-03-20T15:31:26.452Z,1.77
2023-03-20T15:33:54.985Z,1.30
2023-03-20T15:36:26.961Z,1.67
2023-03-20T15:39:01.674Z,2.13
2023-03-20T15:41:36.433Z,1.23
2023-03-20T15:44:04.507Z,2.10
2023-03-20T15:46:31.349Z,2.03
2023-03-20T15:49:00.376Z,1.77
2023-03-20T15:51:27.973Z,1.50
2023-03-20T15:53:54.801Z,1.30
2023-03-20T15:56:25.990Z,1.73
2023-03-20T15:58:53.843Z,2.20
2023-03-20T16:01:22.833Z,1.98
2023-03-20T16:03:50.885Z,1.15
2023-03-20T16:06:21.400Z,1.73
2023-03-20T16:08:58.507Z,1.50
2023-03-20T16:11:25.310Z,1.50
2023-03-20T16:13:53.232Z,1.75
2023-03-20T16:16:23.863Z,2.08
2023-03-20T16:18:51.250Z,1.60
2023-03-20T16:21:40.327Z,1.42
2023-03-20T16:24:09.785Z,1.25
2023-03-20T16:26:44.536Z,1.63
2023-03-20T16:29:14.576Z,1.48
2023-03-20T16:32:03.982Z,1.10
2023-03-20T16:34:37.155Z,1.30
2023-03-20T16:37:22.390Z,1.20
2023-03-20T16:40:01.485Z,1.52
2023-03-20T16:42:29.457Z,1.38
2023-03-20T16:44:58.435Z,1.65
2023-03-20T16:47:34.411Z,1.42
2023-03-20T16:50:22.141Z,1.77
2023-03-20T16:52:59.202Z,2.17
2023-03-20T16:55:31.457Z,1.92
2023-03-20T16:58:06.069Z,1.60
2023-03-20T17:01:08.563Z,1.88
2023-03-20T17:04:11.679Z,1.88
2023-03-20T17:06:43.350Z,2.10
2023-03-20T17:09:13.268Z,1.58
2023-03-20T17:11:46.291Z,1.90
2023-03-20T17:14:13.059Z,1.75
2023-03-20T17:16:40.488Z,2.13
2023-03-20T17:19:18.255Z,2.10
2023-03-20T17:21:46.861Z,2.63
2023-03-20T17:24:15.442Z,2.20
2023-03-20T17:26:44.575Z,2.05
2023-03-20T17:29:12.703Z,2.33
2023-03-20T17:31:39.864Z,2.80
2023-03-20T17:34:06.959Z,2.90
2023-03-20T17:36:35.338Z,6.25
2023-03-20T17:39:02.058Z,3.92
2023-03-20T17:41:28.983Z,5.43
2023-03-20T17:43:58.653Z,4.40
2023-03-20T17:46:31.466Z,3.88
2023-03-20T17:49:04.920Z,4.43
2023-03-20T17:51:31.814Z,4.15
2023-03-20T17:53:58.748Z,3.35
2023-03-20T17:56:30.256Z,6.20
2023-03-20T17:58:57.434Z,4.32
2023-03-20T18:01:24.644Z,5.20
2023-03-20T18:03:51.528Z,4.72
2023-03-20T18:06:39.909Z,4.38
2023-03-20T18:09:09.015Z,3.20
2023-03-20T18:11:35.793Z,2.80
2023-03-20T18:14:02.542Z,2.70
2023-03-20T18:16:29.360Z,2.80
2023-03-20T18:18:56.971Z,5.40
2023-03-20T18:21:24.036Z,4.53
2023-03-20T18:23:51.043Z,4.43
2023-03-20T18:26:23.590Z,3.88
2023-03-20T18:28:52.251Z,2.83
2023-03-20T18:31:19.696Z,3.78
2023-03-20T18:33:48.747Z,3.35
2023-03-20T18:36:17.552Z,3.83
2023-03-20T18:38:44.980Z,3.20
2023-03-20T18:41:12.088Z,3.40
2023-03-20T18:43:40.722Z,3.72
2023-03-20T18:46:18.446Z,3.53
2023-03-20T18:48:46.606Z,4.20
2023-03-20T18:51:13.880Z,3.97
2023-03-20T18:53:41.620Z,3.63
2023-03-20T18:56:25.960Z,3.22
2023-03-20T18:58:53.600Z,3.78
2023-03-20T19:01:21.158Z,3.72
2023-03-20T19:03:48.896Z,3.70
2023-03-20T19:06:21.901Z,3.85
2023-03-20T19:08:49.876Z,4.03
2023-03-20T19:11:20.521Z,3.58
2023-03-20T19:13:50.988Z,4.18
2023-03-20T19:16:35.833Z,4.88
2023-03-20T19:19:05.041Z,4.15
2023-03-20T19:21:33.652Z,4.82
2023-03-20T19:24:03.286Z,4.65
2023-03-20T19:26:31.830Z,5.30
2023-03-20T19:29:01.200Z,4.78
2023-03-20T19:31:28.641Z,4.70
2023-03-20T19:33:59.182Z,5.25
2023-03-20T19:36:32.043Z,4.37
2023-03-20T19:39:01.225Z,4.43
2023-03-20T19:41:29.310Z,4.50
2023-03-20T19:43:57.470Z,4.43
2023-03-20T19:46:39.228Z,4.65
2023-03-20T19:49:17.359Z,4.03
2023-03-20T19:51:45.024Z,4.80
2023-03-20T19:54:11.819Z,4.70
2023-03-20T19:56:38.769Z,5.43
2023-03-20T19:59:06.131Z,5.72
2023-03-20T20:01:33.085Z,5.03
2023-03-20T20:04:00.959Z,5.05
2023-03-20T20:06:31.643Z,4.80
2023-03-20T20:09:01.409Z,5.32
2023-03-20T20:11:28.709Z,6.03
2023-03-20T20:14:14.628Z,5.00
2023-03-20T20:16:42.970Z,5.50
2023-03-20T20:19:10.803Z,6.05
2023-03-20T20:24:26.245Z,5.57
2023-03-20T20:27:03.450Z,6.35
2023-03-20T20:29:39.824Z,6.25
2023-03-20T20:32:06.657Z,7.25
2023-03-20T20:40:09.921Z,6.93
2023-03-20T20:42:37.398Z,6.43
2023-03-20T20:45:06.772Z,7.07
2023-03-20T20:47:33.999Z,7.45
2023-03-20T20:50:03.915Z,7.57
2023-03-20T20:52:34.331Z,7.10
2023-03-20T20:55:19.241Z,8.75
2023-03-20T20:57:48.745Z,9.05
2023-03-20T21:00:16.468Z,8.43
2023-03-20T21:02:43.263Z,7.63
2023-03-20T21:05:12.980Z,7.85
2023-03-20T21:07:43.405Z,8.30
2023-03-20T21:10:11.678Z,7.60
2023-03-20T21:12:48.519Z,9.77
2023-03-20T21:15:22.830Z,8.90
2023-03-20T21:17:59.903Z,9.55
2023-03-20T21:20:28.727Z,8.77
2023-03-20T21:22:55.573Z,9.63
2023-03-20T21:25:36.355Z,8.80
2023-03-20T21:28:06.616Z,7.22
2023-03-20T21:30:33.633Z,7.22
2023-03-20T21:33:01.004Z,7.28
2023-03-20T21:35:27.759Z,6.75
2023-03-20T21:40:42.094Z,6.55
2023-03-20T21:43:10.185Z,5.97
2023-03-20T21:48:58.826Z,5.65
2023-03-20T21:52:11.147Z,5.65
2023-03-20T21:54:47.588Z,5.18
2023-03-20T22:00:14.968Z,6.13
2023-03-20T22:02:24.755Z,6.20
2023-03-20T22:08:19.682Z,5.85
2023-03-20T22:11:40.653Z,5.72
2023-03-20T22:19:49.914Z,5.80
2023-03-20T22:22:23.165Z,5.45
2023-03-20T22:33:41.028Z,5.18
2023-03-20T22:44:50.490Z,4.20
2023-03-20T22:46:47.331Z,3.65
2023-03-20T22:49:14.674Z,3.13
2023-03-20T22:51:52.425Z,3.80
2023-03-20T22:54:24.750Z,3.78
2023-03-20T22:56:51.564Z,3.92
2023-03-20T22:59:18.396Z,3.92
2023-03-20T23:01:45.970Z,3.63
2023-03-20T23:04:12.735Z,3.65
2023-03-20T23:06:39.681Z,3.58
2023-03-20T23:09:15.083Z,3.30
2023-03-20T23:11:43.165Z,3.10
2023-03-20T23:14:20.521Z,3.22
2023-03-20T23:16:49.098Z,2.90
2023-03-20T23:19:16.383Z,3.42
2023-03-20T23:21:43.151Z,3.13
2023-03-20T23:24:10.028Z,3.25
2023-03-20T23:26:36.963Z,3.92
2023-03-20T23:29:03.973Z,3.47
2023-03-20T23:31:30.757Z,3.63
2023-03-20T23:33:58.362Z,3.08
2023-03-20T23:36:42.452Z,3.85
2023-03-20T23:39:12.072Z,3.22
2023-03-20T23:42:09.865Z,3.55
2023-03-20T23:44:26.328Z,3.65
2023-03-20T23:46:54.725Z,2.78
2023-03-20T23:49:22.163Z,3.25
2023-03-20T23:51:48.990Z,2.78
2023-03-20T23:54:16.284Z,3.17
2023-03-20T23:56:43.347Z,2.70
2023-03-20T23:59:25.232Z,2.92
